Overview Statistics Trail Chart Weather Telemetry Raw packets
 

This is the latest recevied weather packets stored in our database for station/object WX5RP. If no packets are shown the sender has not sent any weather packets the latest 10 day(s).

<< 36 37 38 39 40 41 42 >>
Time Temp. Humidity Pressure Rain* Wind** Luminosity Snow
1777448715 5° C 58% 1021 hPa 0 mm - 0 W/m² -
1777448115 4.44° C 60% 1021.2 hPa 0 mm - 0 W/m² -
1777447517 4.44° C 58% 1020.8 hPa 0 mm - 0 W/m² -
1777446917 5° C 58% 1020.8 hPa 0 mm - 0 W/m² -
1777446317 5.56° C 56% 1021.1 hPa 0 mm - 0 W/m² -
1777445716 7.22° C 52% 1021 hPa 0 mm - 0 W/m² -
1777445116 7.22° C 51% 1021 hPa 0 mm - 0 W/m² -
1777444516 7.78° C 48% 1020.7 hPa 0 mm - 0 W/m² -
1777443916 7.78° C 47% 1020.4 hPa 0 mm - 0 W/m² -
1777443317 8.33° C 48% 1020.2 hPa 0 mm - 0 W/m² -
1777442716 8.33° C 52% 1020.7 hPa 0 mm - 0 W/m² -
1777442116 8.89° C 52% 1020.7 hPa 0 mm - 0 W/m² -
1777441516 8.89° C 45% 1020.3 hPa 0 mm - 0 W/m² -
1777440916 9.44° C 46% 1020.3 hPa 0 mm - 0 W/m² -
1777440316 10° C 45% 1020.2 hPa 0 mm - 0 W/m² -
1777439716 10° C 45% 1020.2 hPa 0 mm - 0 W/m² -
1777439116 10° C 44% 1020.3 hPa 0 mm - 0 W/m² -
1777438516 10° C 44% 1019.8 hPa 0 mm - 0 W/m² -
1777437916 10° C 44% 1019.9 hPa 0 mm - 0 W/m² -
1777437316 10.56° C 42% 1019.4 hPa 0 mm - 0 W/m² -
1777436716 10.56° C 42% 1019.3 hPa 0 mm - 0 W/m² -
1777436116 10.56° C 44% 1019 hPa 0 mm - 0 W/m² -
1777435516 10.56° C 45% 1019.5 hPa 0 mm - 0 W/m² -
1777434916 11.11° C 40% 1018.8 hPa 0 mm - 0 W/m² -
1777434316 11.67° C 36% 1018.7 hPa 0 mm - 0 W/m² -

* Rain latest hour (hover to see other rain measurements)
** Current wind speed in m/s (hover to see current wind gust speed)